Nearby METAR Reports

 

KISP - Islip, New York, USA
Distance from station: SW 4mi, 6km
Updated: Mon, 11/18/2019 7:56 pm EST
Overcast
Overcast
 Wind from N
Wind: N 7 mph , 11 km/h
Temperature: 45°F , 7°C
Wind Chill: 41°F , 5°C
Dew Point: 39°F , 4°C
Humidity: 81%
Barometer: 29.69 inHg , 1005.4 hPa
Clouds: Overcast
Visibility: 10 miles , 16 km
Cloud details: Overcast 2100 ft
2019/11/19 00:56 KISP 190056Z 01006KT 10SM OVC021 07/04 A2969 RMK AO2 SLP054 T00670039
KHWV - Shirley, New York, USA
Distance from station: E 10mi, 16km
Updated: Mon, 11/18/2019 8:18 pm EST
Overcast
Overcast
 Wind from N
Wind: N 5 mph , 7 km/h
Temperature: 45°F , 7°C
Wind Chill: 42°F , 6°C
Dew Point: 36°F , 2°C
Humidity: 71%
Barometer: 29.69 inHg , 1005.4 hPa
Clouds: Overcast
Visibility: 10 miles , 16 km
Cloud details: Partly cloudy 1900 ft
Partly cloudy 2500 ft
Overcast 3100 ft
2019/11/19 01:18 KHWV 190118Z AUTO 01004KT 10SM SCT019 SCT025 OVC031 07/02 A2969 RMK AO2 T00720022
 
KFRG - Farmingdale, New York, USA
Distance from station: WSW 20mi, 33km
Updated: Mon, 11/18/2019 7:53 pm EST
Overcast
Overcast
 Wind from NNW
Wind: NNW 6 mph , 9 km/h
Temperature: 41°F , 5°C
Wind Chill: 37°F , 3°C
Dew Point: 37°F , 3°C
Humidity: 87%
Barometer: 29.70 inHg , 1005.8 hPa
Clouds: Overcast
Visibility: 10 miles , 16 km
Cloud details: Few Clouds 800 ft
Overcast 2100 ft
2019/11/19 00:53 KFRG 190053Z 34005KT 10SM FEW008 OVC021 05/03 A2970 RMK AO2 SLP058 T00500028
KBDR - Bridgeport, Connecticut, USA
Distance from station: N 23mi, 37km
Updated: Mon, 11/18/2019 7:52 pm EST
Overcast
Overcast
 Wind from varies
Wind: varies 3 mph , 6 km/h
Temperature: 43°F , 6°C
Dew Point: 39°F , 4°C
Humidity: 87%
Barometer: 29.70 inHg , 1005.8 hPa
Clouds: Overcast
Visibility: 10 miles , 16 km
Cloud details: Mostly cloudy 2400 ft
Mostly cloudy 3400 ft
Overcast 4500 ft
2019/11/19 00:52 KBDR 190052Z VRB03KT 10SM BKN024 BKN034 OVC045 06/04 A2970 RMK AO2 RAB04E41 SLP056 P0000 T00610039
 
KFOK - Westhampton Beac, New York, USA
Distance from station: E 23mi, 37km
Updated: Mon, 11/18/2019 8:18 pm EST
Mostly cloudy
Mostly cloudy
 Wind from WNW
Wind: WNW 5 mph , 7 km/h
Temperature: 43°F , 6°C
Wind Chill: 40°F , 4°C
Dew Point: 37°F , 3°C
Humidity: 81%
Barometer: 29.70 inHg , 1005.8 hPa
Clouds: Mostly cloudy
Visibility: 10 miles , 16 km
Cloud details: Mostly cloudy 1700 ft
Mostly cloudy 3000 ft
2019/11/19 01:18 KFOK 190118Z 29004KT 10SM BKN017 BKN030 06/03 A2970 RMK AO2 T00560028
KHVN - New Haven/Tweed, Connecticut, USA
Distance from station: NNE 31mi, 50km
Updated: Mon, 11/18/2019 7:53 pm EST
Overcast
Overcast
 Wind from N
Wind: N 14 mph , 22 km/h
Temperature: 46°F , 8°C
Wind Chill: 40°F , 4°C
Dew Point: 36°F , 2°C
Humidity: 66%
Barometer: 29.68 inHg , 1005.1 hPa
Clouds: Overcast
Visibility: 10 miles , 16 km
Cloud details: Overcast 2400 ft
2019/11/19 00:53 KHVN 190053Z 01012KT 10SM OVC024 08/02 A2968 RMK AO2 SLP051 T00780017
 
KHPN - White Plains, New York, USA
Distance from station: WNW 37mi, 60km
Updated: Mon, 11/18/2019 8:10 pm EST
Light drizzle, Mist, Overcast
Light drizzle, Mist, Overcast
 Wind from NNW
Wind: NNW 8 mph , 13 km/h
Temperature: 37°F , 3°C
Wind Chill: 31°F , -1°C
Dew Point: 36°F , 2°C
Humidity: 93%
Barometer: 29.68 inHg , 1005.1 hPa
Summary: Light drizzle, Mist
Clouds: Overcast
Visibility: 2 1/2 miles , 4 km
Cloud details: Partly cloudy 700 ft
Overcast 1700 ft
2019/11/19 01:10 KHPN 190110Z 33007KT 2 1/2SM -DZ BR SCT007 OVC017 03/02 A2968 RMK AO2 P0001 T00330017
KJFK - Nyc/Jfk Arpt, New York, USA
Distance from station: WSW 40mi, 64km
Updated: Mon, 11/18/2019 7:51 pm EST
Light rain, Mist, Overcast
Light rain, Mist, Overcast
 Wind from NNW
Wind: NNW 7 mph , 11 km/h
Temperature: 39°F , 4°C
Wind Chill: 34°F , 1°C
Dew Point: 39°F , 4°C
Humidity: 100%
Barometer: 29.73 inHg , 1006.8 hPa
Summary: Light rain, Mist
Clouds: Overcast
Visibility: 4 miles , 6 km
Cloud details: Mostly cloudy 800 ft
Mostly cloudy 1100 ft
Overcast 2100 ft
2019/11/19 00:51 KJFK 190051Z 33006KT 4SM -RA BR BKN008 BKN011 OVC021 04/04 A2973 RMK AO2 SLP067 P0001 T00440044 $
 
KDXR - Danbury, Connecticut, USA
Distance from station: NNW 42mi, 68km
Updated: Mon, 11/18/2019 8:15 pm EST
Mist, Overcast
Mist, Overcast
 Wind from calm
Wind: Calm
Temperature: 37°F , 3°C
Dew Point: 36°F , 2°C
Humidity: 93%
Barometer: 29.69 inHg , 1005.4 hPa
Summary: Mist
Clouds: Overcast
Visibility: 4 miles , 6 km
Cloud details: Partly cloudy 800 ft
Overcast 2100 ft
2019/11/19 01:15 KDXR 190115Z 00000KT 4SM BR SCT008 OVC021 03/02 A2969 RMK AO2 T00280022
KHTO - East Hampton, New York, USA
Distance from station: E 43mi, 69km
Updated: Mon, 11/18/2019 8:15 pm EST
Overcast
Overcast
 Wind from calm
Wind: Calm
Temperature: 43°F , 6°C
Dew Point: 41°F , 5°C
Humidity: 93%
Barometer: 29.68 inHg , 1005.1 hPa
Clouds: Overcast
Visibility: 10 miles , 16 km
Cloud details: Overcast 1300 ft
2019/11/19 01:15 KHTO 190115Z AUTO 00000KT 10SM OVC013 06/05 A2968 RMK AO2 T00560050
 
KOXC - Oxford/Waterbury, Connecticut, USA
Distance from station: N 43mi, 70km
Updated: Mon, 11/18/2019 8:19 pm EST
Overcast
Overcast
 Wind from N
Wind: N 10 mph , 17 km/h
Temperature: 39°F , 4°C
Wind Chill: 32°F , 0°C
Dew Point: 36°F , 2°C
Humidity: 87%
Barometer: 29.68 inHg , 1005.1 hPa
Clouds: Overcast
Visibility: 8 miles , 13 km
Cloud details: Overcast 1800 ft
2019/11/19 01:19 KOXC 190119Z 01009KT 8SM OVC018 04/02 A2968 RMK AO2 DZE18 P0000
KLGA - Nyc/La Guardia, New York, USA
Distance from station: W 44mi, 70km
Updated: Mon, 11/18/2019 7:51 pm EST
Light rain, Mist, Overcast
Light rain, Mist, Overcast
 Wind from NNW
Wind: NNW 12 mph , 19 km/h
Temperature: 41°F , 5°C
Wind Chill: 34°F , 1°C
Dew Point: 37°F , 3°C
Humidity: 87%
Barometer: 29.71 inHg , 1006.1 hPa
Summary: Light rain, Mist
Clouds: Overcast
Visibility: 2 1/2 miles , 4 km
Cloud details: Mostly cloudy 800 ft
Overcast 1600 ft
2019/11/19 00:51 KLGA 190051Z 34010KT 2 1/2SM -RA BR BKN008 OVC016 05/03 A2971 RMK AO2 SFC VIS 3 SLP061 P0002 T00500033
 
KSNC - Chester, Connecticut, USA
Distance from station: NE 47mi, 76km
Updated: Mon, 11/18/2019 8:15 pm EST
Overcast
Overcast
 Wind from N
Wind: N 9 mph , 15 km/h
Temperature: 41°F , 5°C
Wind Chill: 35°F , 2°C
Dew Point: 34°F , 1°C
Humidity: 76%
Barometer: 29.67 inHg , 1004.7 hPa
Clouds: Overcast
Visibility: 10 miles , 16 km
Cloud details: Overcast 1200 ft
2019/11/19 01:15 KSNC 190115Z AUTO 36008KT 10SM OVC012 05/01 A2967 RMK AO2
KMMK - Meriden, Connecticut, USA
Distance from station: NNE 48mi, 77km
Updated: Mon, 11/18/2019 7:53 pm EST
Overcast
Overcast
 Wind from NNE
Wind: NNE 7 mph , 11 km/h
Temperature: 43°F , 6°C
Wind Chill: 39°F , 4°C
Dew Point: 32°F , 0°C
Humidity: 66%
Barometer: 29.70 inHg , 1005.8 hPa
Clouds: Overcast
Visibility: 10 miles , 16 km
Cloud details: Mostly cloudy 2300 ft
Overcast 3000 ft
2019/11/19 00:53 KMMK 190053Z AUTO 03006KT 10SM BKN023 OVC030 06/00 A2970 RMK AO2 SLP057 T00560000
 
KNYC - Nyc/Central Park, New York, USA
Distance from station: W 48mi, 77km
Updated: Mon, 11/18/2019 8:02 pm EST
Light rain, Mist, Overcast
Light rain, Mist, Overcast
 Wind from calm
Wind: Calm
Temperature: 39°F , 4°C
Dew Point: 37°F , 3°C
Humidity: 93%
Barometer: 29.74 inHg , 1007.1 hPa
Summary: Light rain, Mist
Clouds: Overcast
Visibility: 1 3/4 miles , 2.8 km
Cloud details: Overcast 500 ft
2019/11/19 01:02 KNYC 190102Z AUTO 00000KT 1 3/4SM -RA BR OVC005 04/03 A2974 RMK AO2 P0000 T00440033 $